Latest Weather Observations for Williamtown

IDN60901

Issued at 1:41 pm EST Saturday 23 September 2017 (issued every 10 minutes, with the page automatically refreshed every 10 minutes)

About weather observations | Map of Sydney area stations | Latest observations for Sydney area | Other Formats
Station Details ID: 061078 Name: WILLIAMTOWN RAAF Lat: -32.79 Lon: 151.84 Height: 7.5 m
Data from the previous 72 hours. | See also: Recent months at Williamtown
Date/Time
EST
Temp
°C
App
Temp
°C
Dew
Point
°C
Rel
Hum
%
Delta-T
°C
Wind Press
QNH
hPa
Press
MSL
hPa
Rain since
9am
mm
Dir  Spd
km/h
Gust
km/h
Spd
kts
Gust
kts
23/01:30pm 27.4 25.7 9.7 33 9.9 S 9 13 5 7 1005.3 1005.3 0.0
23/01:00pm 27.8 26.4 9.6 32 10.1 WSW 7 11 4 6 1006.0 1006.0 0.0
23/12:30pm 26.8 23.2 6.8 28 10.5 NW 15 17 8 9 1006.4 1006.4 0.0
23/12:00pm 26.1 23.1 6.2 28 10.4 NW 11 15 6 8 1007.2 1007.2 0.0
23/11:30am 26.8 24.1 7.3 29 10.4 N 11 15 6 8 1007.8 1007.8 0.0
23/11:00am 26.6 24.1 6.6 28 10.5 NW 9 13 5 7 1008.8 1008.7 0.0
23/10:30am 25.4 22.0 6.1 29 10.0 NW 13 19 7 10 1009.2 1009.1 0.0
23/10:00am 25.9 22.0 5.5 27 10.5 WNW 15 22 8 12 1010.0 1009.9 0.0
23/09:30am 24.3 20.1 5.6 30 9.5 NW 17 28 9 15 1010.2 1010.1 0.0
23/09:00am 24.0 20.3 6.3 32 9.1 NW 15 22 8 12 1010.8 1010.7 0.0
23/08:30am 22.4 18.0 4.9 32 8.7 WNW 17 22 9 12 1011.1 1011.0 0.0
23/08:00am 19.4 17.2 7.8 47 6.0 NW 9 15 5 8 1010.8 1010.7 0.0
23/07:30am 17.0 15.1 9.2 60 4.0 WNW 9 11 5 6 1010.8 1010.7 0.0
23/07:00am 15.0 13.3 8.3 64 3.4 NNW 7 9 4 5 1010.8 1010.7 0.0
23/06:30am 12.0 10.3 7.7 75 2.1 N 6 7 3 4 1010.4 1010.3 0.0
23/06:00am 10.7 8.8 7.6 81 1.5 N 7 11 4 6 1010.4 1010.3 0.0
23/05:30am 10.4 8.7 7.5 82 1.4 WNW 6 7 3 4 1010.7 1010.6 0.0
23/05:00am 11.3 9.7 8.0 80 1.6 N 6 11 3 6 1010.6 1010.5 0.0
23/04:30am 12.6 12.4 8.9 78 1.9 CALM 0 0 0 0 1010.4 1010.3 0.0
23/04:00am 12.6 11.1 9.1 79 1.8 WSW 7 9 4 5 1010.6 1010.5 0.0
23/03:30am 11.5 10.2 7.6 77 1.9 WSW 4 7 2 4 1010.7 1010.6 0.0
23/03:00am 11.9 10.4 8.4 79 1.7 WSW 6 7 3 4 1010.5 1010.4 0.0
23/02:30am 11.5 9.9 8.0 79 1.7 WSW 6 7 3 4 1010.6 1010.5 0.0
23/02:00am 12.3 11.9 8.4 77 1.9 CALM 0 0 0 0 1010.5 1010.4 0.0
23/01:30am 11.9 11.4 8.0 77 1.9 CALM 0 0 0 0 1010.8 1010.7 0.0
23/01:00am 12.5 12.0 8.0 74 2.2 CALM 0 0 0 0 1011.1 1011.0 0.0
23/12:30am 12.6 11.9 6.9 68 2.7 CALM 0 0 0 0 1011.3 1011.2 0.0
23/12:00am 14.5 14.1 8.2 66 3.2 CALM 0 0 0 0 1011.5 1011.4 0.0
 
Date/Time
EST
Temp
°C
App
Temp
°C
Dew
Point
°C
Rel
Hum
%
Delta-T
°C
Wind Press
QNH
hPa
Press
MSL
hPa
Rain since
9am
mm
Dir  Spd
km/h
Gust
km/h
Spd
kts
Gust
kts
22/11:30pm 14.8 14.0 6.6 58 4.0 CALM 0 0 0 0 1011.8 1011.7 0.0
22/11:00pm 17.2 15.4 7.3 52 5.0 NNE 6 9 3 5 1011.7 1011.6 0.0
22/10:30pm 18.0 16.1 7.4 50 5.3 N 7 9 4 5 1011.9 1011.8 0.0
22/10:00pm 18.9 16.1 7.0 46 6.0 N 11 15 6 8 1012.0 1011.9 0.0
22/09:30pm 19.4 16.3 7.2 45 6.2 N 13 17 7 9 1012.2 1012.1 0.0
22/09:00pm 20.1 16.7 7.5 44 6.5 NNE 15 19 8 10 1012.2 1012.1 0.0
22/08:30pm 19.7 17.2 8.1 47 6.0 NNE 11 17 6 9 1012.2 1012.1 0.0
22/08:00pm 20.5 17.9 7.8 44 6.6 NNE 11 15 6 8 1012.1 1012.0 0.0
22/07:30pm 21.1 18.3 8.7 45 6.5 NNE 13 17 7 9 1011.8 1011.7 0.0
22/07:00pm 21.2 18.2 9.4 47 6.3 NE 15 20 8 11 1011.5 1011.4 0.0
22/06:30pm 22.0 18.5 8.9 43 7.0 NE 17 24 9 13 1011.1 1011.0 0.0
22/06:00pm 22.9 18.4 7.1 36 8.2 NE 20 28 11 15 1010.8 1010.7 0.0
22/05:30pm 23.5 20.1 5.9 32 8.9 ENE 13 19 7 10 1010.7 1010.6 0.0
22/05:00pm 24.8 20.5 5.1 28 10.0 NE 17 22 9 12 1010.7 1010.6 0.0
22/04:30pm 25.8 20.2 3.7 24 10.9 ENE 22 30 12 16 1010.5 1010.4 0.0
22/04:00pm 26.8 20.8 3.3 22 11.6 NE 24 30 13 16 1010.5 1010.4 0.0
22/03:45pm 27.5 21.6 3.9 22 11.9 ENE 24 33 13 18 1010.5 1010.4 0.0
22/03:30pm 30.5 25.9 -4.5 10 15.5 N 11 17 6 9 1010.4 1010.3 0.0
22/03:00pm 30.8 25.8 -4.3 10 15.7 NW 13 20 7 11 1010.5 1010.4 0.0
22/02:30pm 30.5 25.1 -4.5 10 15.5 WNW 15 28 8 15 1010.6 1010.5 0.0
22/02:00pm 30.2 23.4 -4.8 10 15.4 WNW 22 33 12 18 1011.0 1010.9 0.0
22/01:30pm 29.6 22.9 -3.9 11 14.9 WNW 22 33 12 18 1011.2 1011.1 0.0
22/01:00pm 29.9 23.3 -3.7 11 15.0 WNW 22 35 12 19 1011.5 1011.4 0.0
22/12:30pm 29.3 23.1 0.0 15 13.9 NW 22 30 12 16 1011.9 1011.8 0.0
22/12:00pm 28.6 22.5 0.3 16 13.4 NW 22 35 12 19 1012.5 1012.4 0.0
22/11:30am 27.3 22.2 3.1 21 12.0 NW 19 30 10 16 1013.3 1013.2 0.0
22/11:00am 26.2 22.1 4.6 25 10.9 NW 15 20 8 11 1013.9 1013.8 0.0
22/10:30am 24.7 20.8 3.4 25 10.4 NW 13 17 7 9 1014.4 1014.3 0.0
22/10:00am 22.7 18.8 3.3 28 9.3 NW 13 17 7 9 1014.8 1014.7 0.0
22/09:30am 20.9 16.6 3.2 31 8.4 WNW 15 17 8 9 1015.2 1015.1 0.0
22/09:00am 19.7 15.6 4.6 37 7.3 WNW 15 19 8 10 1015.4 1015.3 0.0
22/08:30am 18.1 13.5 3.6 38 6.8 NW 17 20 9 11 1015.6 1015.5 0.0
22/08:00am 16.6 12.6 4.9 46 5.5 NW 15 19 8 10 1015.6 1015.5 0.0
22/07:30am 14.6 10.9 6.2 57 4.0 NW 15 20 8 11 1015.4 1015.3 0.0
22/07:00am 11.8 10.0 8.1 78 1.8 NNW 7 9 4 5 1015.2 1015.1 0.0
22/06:30am 9.2 7.2 7.3 88 0.9 NW 7 9 4 5 1014.7 1014.6 0.0
22/06:00am 8.4 6.6 7.0 91 0.7 NW 6 9 3 5 1014.1 1014.0 0.0
22/05:30am 8.2 5.8 7.0 92 0.6 NW 9 11 5 6 1013.9 1013.8 0.0
22/05:00am 8.4 6.5 7.5 94 0.4 NW 7 9 4 5 1013.6 1013.5 0.0
22/04:30am 8.2 5.9 7.3 94 0.4 NW 9 9 5 5 1013.6 1013.5 0.0
22/04:00am 8.0 7.2 6.5 90 0.7 CALM 0 4 0 2 1013.4 1013.3 0.0
22/03:30am 8.7 6.7 7.2 90 0.7 NNW 7 9 4 5 1013.3 1013.2 0.0
22/03:00am 10.1 9.1 8.7 91 0.7 N 4 9 2 5 1013.3 1013.2 0.0
22/02:30am 10.1 8.6 8.5 90 0.8 NNW 6 7 3 4 1013.6 1013.5 0.0
22/02:00am 10.8 9.5 9.2 90 0.8 NW 6 7 3 4 1013.8 1013.7 0.0
22/01:30am 10.1 9.1 7.5 84 1.2 NW 2 9 1 5 1014.1 1014.0 0.0
22/01:00am 12.8 10.8 10.0 83 1.4 NNE 11 13 6 7 1014.1 1014.0 0.0
22/12:30am 12.4 12.2 9.2 81 1.6 CALM 0 0 0 0 1014.2 1014.1 0.0
22/12:00am 11.5 11.2 8.5 82 1.5 CALM 0 0 0 0 1014.2 1014.1 0.0
 
Date/Time
EST
Temp
°C
App
Temp
°C
Dew
Point
°C
Rel
Hum
%
Delta-T
°C
Wind Press
QNH
hPa
Press
MSL
hPa
Rain since
9am
mm
Dir  Spd
km/h
Gust
km/h
Spd
kts
Gust
kts
21/11:30pm 11.8 10.7 8.6 81 1.6 W 4 7 2 4 1014.3 1014.2 0.0
21/11:00pm 14.2 13.7 9.2 72 2.5 NNW 2 6 1 3 1014.1 1014.0 0.0
21/10:30pm 14.9 14.5 8.2 64 3.4 CALM 0 0 0 0 1014.2 1014.1 0.0
21/10:00pm 17.2 14.9 9.1 59 4.2 NNE 11 13 6 7 1014.2 1014.1 0.0
21/09:30pm 17.5 14.5 9.4 59 4.2 NNE 15 17 8 9 1014.2 1014.1 0.0
21/09:00pm 17.6 15.0 9.5 59 4.2 NNE 13 15 7 8 1014.3 1014.2 0.0
21/08:30pm 18.5 15.6 9.8 57 4.6 NNE 15 19 8 10 1014.3 1014.2 0.0
21/08:00pm 18.4 16.3 11.0 62 4.0 NNE 13 17 7 9 1014.3 1014.2 0.0
21/07:30pm 18.4 16.7 12.4 68 3.3 NE 13 17 7 9 1014.0 1013.9 0.0
21/07:00pm 18.9 16.8 12.4 66 3.6 NE 15 19 8 10 1013.8 1013.7 0.0
21/06:30pm 19.4 17.8 12.9 66 3.7 ENE 13 19 7 10 1013.3 1013.2 0.0
21/06:15pm 19.5 18.1 13.4 68 3.5 ENE 13 17 7 9 1013.2 1013.1 0.0
21/06:00pm 20.0 18.7 13.7 67 3.6 ENE 13 17 7 9 1013.0 1012.9 0.0
21/05:30pm 21.0 19.1 12.9 60 4.6 ENE 15 20 8 11 1012.7 1012.6 0.0
21/05:00pm 22.1 19.1 11.8 52 5.8 ENE 19 26 10 14 1012.7 1012.6 0.0
21/04:30pm 23.4 19.5 8.7 39 7.9 ENE 19 28 10 15 1012.6 1012.5 0.0
21/04:00pm 24.2 19.9 7.8 35 8.7 ENE 20 26 11 14 1012.5 1012.4 0.0
21/03:30pm 24.5 23.2 13.7 51 6.3 ESE 13 19 7 10 1012.6 1012.5 0.0
21/03:00pm 24.2 21.4 11.2 44 7.3 ESE 17 19 9 10 1012.7 1012.6 0.0
21/02:30pm 24.6 21.6 10.8 42 7.7 SE 17 28 9 15 1012.8 1012.7 0.0
21/02:00pm 26.7 23.4 2.6 21 11.8 WNW 9 17 5 9 1013.1 1013.0 0.0
21/01:30pm 26.0 22.7 2.7 22 11.3 NW 9 17 5 9 1013.6 1013.5 0.0
21/01:00pm 25.6 21.9 2.3 22 11.2 NW 11 17 6 9 1014.1 1014.0 0.0
21/12:30pm 25.0 21.4 3.0 24 10.7 NNW 11 17 6 9 1014.7 1014.6 0.0
21/12:00pm 23.8 20.1 4.2 28 9.7 NNW 13 19 7 10 1015.1 1015.0 0.0
21/11:30am 23.1 19.5 5.1 31 9.0 N 13 22 7 12 1015.6 1015.5 0.0
21/11:00am 22.0 19.9 9.9 46 6.5 NNW 11 17 6 9 1016.1 1016.0 0.0
21/10:30am 19.7 17.1 9.3 51 5.5 N 13 19 7 10 1016.6 1016.5 0.0
21/10:00am 18.4 16.6 10.8 61 4.1 NNW 11 15 6 8 1017.0 1016.9 0.0
21/09:30am 16.8 14.5 10.4 66 3.4 NW 13 17 7 9 1017.3 1017.2 0.0
21/09:00am 15.2 12.8 10.0 71 2.7 NW 13 17 7 9 1017.4 1017.3 0.0
21/08:30am 13.9 11.0 9.7 76 2.2 NW 15 19 8 10 1017.6 1017.5 0.0
21/08:00am 11.9 9.8 9.6 86 1.2 NW 11 15 6 8 1017.7 1017.6 0.0
21/07:30am 10.2 7.5 9.1 93 0.5 NW 13 15 7 8 1017.8 1017.7 0.0
21/07:00am 9.0 6.5 8.4 96 0.3 WNW 11 13 6 7 1017.7 1017.6 0.0
21/06:30am 7.8 6.1 7.4 97 0.2 NW 6 7 3 4 1017.5 1017.4 0.0
21/06:00am 7.4 5.0 7.0 97 0.2 NW 9 11 5 6 1017.4 1017.3 0.0
21/05:30am 7.2 3.9 6.6 96 0.3 WNW 13 13 7 7 1017.2 1017.1 0.0
21/05:00am 7.8 5.1 7.2 96 0.3 NW 11 13 6 7 1017.0 1016.9 0.0
21/04:30am 7.7 5.3 7.1 96 0.3 NW 9 9 5 5 1016.8 1016.7 0.0
21/04:00am 7.2 4.7 6.6 96 0.3 NW 9 11 5 6 1016.8 1016.7 0.0
21/03:30am 8.2 6.0 7.8 97 0.2 WSW 9 9 5 5 1016.7 1016.6 0.0
21/03:00am 8.1 5.8 7.5 96 0.3 WSW 9 9 5 5 1016.7 1016.6 0.0
21/02:30am 7.6 5.5 6.7 94 0.4 WSW 7 9 4 5 1016.9 1016.8 0.0
21/02:00am 7.7 6.9 6.5 92 0.5 CALM 0 0 0 0 1016.8 1016.7 0.0
21/01:30am 8.3 7.6 6.8 90 0.7 CALM 0 0 0 0 1016.9 1016.8 0.0
21/01:00am 9.4 8.3 8.3 93 0.5 N 4 7 2 4 1017.1 1017.0 0.0
21/12:30am 8.6 6.6 6.9 89 0.8 NNW 7 9 4 5 1017.4 1017.3 0.0
21/12:00am 8.9 6.9 7.2 89 0.8 N 7 7 4 4 1017.7 1017.6 0.0
 
Date/Time
EST
Temp
°C
App
Temp
°C
Dew
Point
°C
Rel
Hum
%
Delta-T
°C
Wind Press
QNH
hPa
Press
MSL
hPa
Rain since
9am
mm
Dir  Spd
km/h
Gust
km/h
Spd
kts
Gust
kts
20/11:30pm 8.6 6.6 7.1 90 0.7 NNE 7 7 4 4 1018.1 1018.0 0.0
20/11:00pm 9.4 8.9 8.0 91 0.7 CALM 0 2 0 1 1018.5 1018.4 0.0
20/10:30pm 9.4 8.2 8.2 92 0.6 NNE 4 7 2 4 1018.5 1018.4 0.0
20/10:00pm 9.6 9.2 8.2 91 0.7 CALM 0 0 0 0 1018.8 1018.7 0.0
20/09:30pm 9.6 9.1 7.7 88 0.9 CALM 0 0 0 0 1018.8 1018.7 0.0
20/09:00pm 10.6 10.2 8.2 85 1.2 CALM 0 0 0 0 1018.7 1018.6 0.0
20/08:30pm 11.9 11.8 9.5 85 1.2 CALM 0 0 0 0 1018.7 1018.6 0.0
20/08:00pm 11.8 11.5 8.6 81 1.6 CALM 0 4 0 2 1018.7 1018.6 0.0
20/07:30pm 13.7 12.5 9.6 76 2.1 NE 6 9 3 5 1018.5 1018.4 0.0
20/07:00pm 14.1 12.9 9.7 75 2.3 NE 6 9 3 5 1018.3 1018.2 0.0
20/06:30pm 14.8 13.0 9.6 71 2.7 ENE 9 13 5 7 1017.9 1017.8 0.0
20/06:00pm 15.5 13.4 9.8 69 3.0 ENE 11 15 6 8 1017.5 1017.4 0.0
20/05:30pm 16.2 14.1 9.6 65 3.4 E 11 15 6 8 1017.5 1017.4 0.0
20/05:00pm 16.9 13.9 9.3 61 3.9 E 15 20 8 11 1017.3 1017.2 0.0
20/04:30pm 17.5 14.6 9.7 60 4.1 E 15 20 8 11 1017.2 1017.1 0.0
20/04:00pm 17.7 14.1 9.8 60 4.2 ESE 19 26 10 14 1017.0 1016.9 0.0
20/03:30pm 17.9 14.1 9.0 56 4.6 SE 19 26 10 14 1016.8 1016.7 0.0
20/03:00pm 18.2 14.9 9.5 57 4.6 ESE 17 26 9 14 1016.8 1016.7 0.0
20/02:30pm 18.2 14.3 9.5 57 4.6 SE 20 28 11 15 1017.2 1017.1 0.0
20/02:00pm 18.2 14.3 9.5 57 4.6 SE 20 26 11 14 1017.6 1017.5 0.0

Latest Capital City Observations: Canberra | Sydney | Melbourne | Brisbane | Adelaide | Perth | Hobart | Darwin

Other Formats:

Comma delimited format used in spreadsheet applications
http://www.bom.gov.au/fwo/IDN60901/IDN60901.94776.axf

JavaScript Object Notation format (JSON) in row-major order
http://www.bom.gov.au/fwo/IDN60901/IDN60901.94776.json